createdAt,value
2022-11-28T00:01:37.791Z,5.10
2022-11-28T00:04:09.695Z,5.03
2022-11-28T00:06:39.107Z,5.03
2022-11-28T00:09:09.255Z,4.93
2022-11-28T00:11:37.226Z,5.07
2022-11-28T00:14:05.495Z,5.06
2022-11-28T00:16:34.818Z,5.07
2022-11-28T00:19:03.612Z,5.08
2022-11-28T00:21:32.118Z,5.10
2022-11-28T00:24:00.793Z,5.09
2022-11-28T00:26:31.290Z,5.12
2022-11-28T00:29:00.187Z,5.09
2022-11-28T00:31:33.132Z,4.92
2022-11-28T00:34:03.002Z,4.79
2022-11-28T00:36:31.656Z,4.84
2022-11-28T00:38:59.489Z,4.93
2022-11-28T00:41:30.193Z,4.66
2022-11-28T00:43:58.845Z,4.92
2022-11-28T00:46:27.072Z,4.99
2022-11-28T00:48:54.937Z,5.06
2022-11-28T00:51:26.670Z,5.08
2022-11-28T00:53:56.264Z,5.11
2022-11-28T00:56:26.268Z,5.19
2022-11-28T00:58:54.522Z,5.24
2022-11-28T01:01:24.484Z,5.23
2022-11-28T01:03:54.158Z,5.24
2022-11-28T01:06:24.927Z,5.23
2022-11-28T01:08:53.187Z,5.27
2022-11-28T01:11:21.785Z,5.16
2022-11-28T01:13:49.814Z,5.26
2022-11-28T01:16:20.540Z,5.24
2022-11-28T01:18:48.449Z,5.25
2022-11-28T01:21:16.698Z,5.25
2022-11-28T01:23:46.068Z,5.19
2022-11-28T01:26:18.774Z,5.14
2022-11-28T01:28:47.106Z,5.04
2022-11-28T01:31:17.185Z,5.08
2022-11-28T01:33:45.722Z,4.97
2022-11-28T01:36:15.176Z,4.82
2022-11-28T01:38:45.037Z,4.60
2022-11-28T01:41:13.402Z,4.44
2022-11-28T01:44:07.708Z,4.35
2022-11-28T01:46:37.075Z,4.29
2022-11-28T01:49:16.605Z,4.33
2022-11-28T01:51:48.865Z,4.33
2022-11-28T01:54:21.562Z,4.40
2022-11-28T01:56:54.033Z,4.43
2022-11-28T01:59:27.515Z,4.51
2022-11-28T02:01:55.654Z,4.64
2022-11-28T02:04:26.927Z,4.65
2022-11-28T02:06:55.459Z,4.60
2022-11-28T02:09:24.664Z,4.60
2022-11-28T02:12:12.399Z,4.64
2022-11-28T02:15:07.740Z,4.63
2022-11-28T02:17:47.508Z,4.62
2022-11-28T02:20:36.954Z,4.60
2022-11-28T02:23:14.441Z,4.61
2022-11-28T02:26:06.566Z,4.61
2022-11-28T02:28:59.057Z,4.62
2022-11-28T02:31:43.925Z,4.62
2022-11-28T02:34:20.674Z,4.60
2022-11-28T02:36:54.021Z,4.55
2022-11-28T02:39:31.481Z,4.52
2022-11-28T02:42:08.216Z,4.52
2022-11-28T02:44:44.471Z,4.53
2022-11-28T02:47:19.882Z,4.53
2022-11-28T02:49:55.888Z,4.52
2022-11-28T02:52:28.936Z,4.38
2022-11-28T02:54:56.883Z,4.53
2022-11-28T02:57:30.187Z,4.51
2022-11-28T02:59:58.075Z,4.49
2022-11-28T03:02:29.046Z,4.48
2022-11-28T03:05:08.718Z,4.46
2022-11-28T03:08:01.804Z,4.39
2022-11-28T03:10:36.750Z,4.38
2022-11-28T03:13:11.198Z,4.39
2022-11-28T03:15:46.408Z,4.41
2022-11-28T03:18:21.386Z,4.43
2022-11-28T03:20:56.309Z,4.34
2022-11-28T03:23:31.523Z,4.41
2022-11-28T03:26:02.779Z,4.42
2022-11-28T03:28:38.169Z,4.50
2022-11-28T03:31:14.273Z,4.53
2022-11-28T03:33:46.548Z,4.68
2022-11-28T03:36:20.497Z,4.75
2022-11-28T03:38:51.675Z,4.78
2022-11-28T03:41:23.174Z,4.80
2022-11-28T03:43:54.679Z,4.80
2022-11-28T03:46:27.246Z,4.82
2022-11-28T03:48:59.614Z,4.82
2022-11-28T03:51:33.714Z,4.84
2022-11-28T03:54:09.351Z,4.88
2022-11-28T03:56:41.975Z,4.87
2022-11-28T03:59:14.441Z,4.75
2022-11-28T04:01:53.883Z,4.58
2022-11-28T04:04:29.270Z,4.50
2022-11-28T04:07:01.536Z,4.50
2022-11-28T04:09:42.335Z,4.52
2022-11-28T04:12:20.642Z,4.60
2022-11-28T04:14:53.949Z,4.63
2022-11-28T04:17:31.900Z,4.48
2022-11-28T04:20:07.036Z,4.77
2022-11-28T04:22:43.645Z,4.86
2022-11-28T04:25:15.134Z,4.93
2022-11-28T04:27:47.568Z,5.00
2022-11-28T04:30:15.944Z,4.91
2022-11-28T04:32:49.130Z,5.06
2022-11-28T04:35:22.832Z,5.17
2022-11-28T04:37:53.817Z,5.21
2022-11-28T04:40:24.853Z,5.25
2022-11-28T04:42:56.923Z,5.29
2022-11-28T04:45:30.019Z,5.28
2022-11-28T04:47:58.428Z,5.35
2022-11-28T04:50:32.137Z,5.22
2022-11-28T04:53:11.567Z,5.33
2022-11-28T04:55:44.810Z,5.36
2022-11-28T04:58:17.252Z,5.39
2022-11-28T05:00:46.652Z,5.40
2022-11-28T05:03:14.732Z,5.36
2022-11-28T05:05:45.652Z,5.21
2022-11-28T05:08:15.010Z,5.33
2022-11-28T05:10:43.139Z,5.31
2022-11-28T05:13:11.157Z,5.32
2022-11-28T05:15:39.205Z,5.31
2022-11-28T05:18:07.608Z,5.28
2022-11-28T05:20:35.906Z,5.30
2022-11-28T05:23:03.695Z,5.33
2022-11-28T05:25:32.999Z,5.34
2022-11-28T05:28:00.841Z,5.23
2022-11-28T05:30:28.650Z,5.38
2022-11-28T05:32:56.478Z,5.41
2022-11-28T05:35:24.374Z,5.43
2022-11-28T05:37:52.162Z,5.44
2022-11-28T05:40:20.221Z,5.41
2022-11-28T05:42:49.382Z,5.41
2022-11-28T05:45:17.268Z,5.37
2022-11-28T05:47:45.164Z,5.35
2022-11-28T05:50:13.160Z,5.33
2022-11-28T05:52:41.010Z,5.31
2022-11-28T05:55:09.736Z,5.28
2022-11-28T05:57:37.572Z,5.27
2022-11-28T06:00:08.308Z,5.27
2022-11-28T06:02:42.086Z,5.27
2022-11-28T06:05:34.673Z,5.31
2022-11-28T06:07:58.131Z,5.32
2022-11-28T06:10:26.069Z,5.32
2022-11-28T06:12:53.932Z,5.35
2022-11-28T06:15:23.146Z,5.36
2022-11-28T06:17:51.019Z,5.37
2022-11-28T06:20:19.054Z,5.38
2022-11-28T06:22:47.593Z,5.38
2022-11-28T06:25:15.470Z,5.38
2022-11-28T06:27:43.885Z,5.39
2022-11-28T06:30:12.039Z,5.40
2022-11-28T06:32:41.184Z,5.36
2022-11-28T06:35:09.467Z,5.47
2022-11-28T06:37:37.281Z,5.48
2022-11-28T06:40:06.151Z,5.51
2022-11-28T06:42:35.778Z,5.51
2022-11-28T06:45:04.584Z,5.47
2022-11-28T06:47:32.784Z,5.42
2022-11-28T06:50:02.126Z,5.51
2022-11-28T06:52:30.138Z,5.53
2022-11-28T06:54:58.010Z,5.54
2022-11-28T06:57:25.805Z,5.59
2022-11-28T06:59:53.670Z,5.56
2022-11-28T07:02:22.853Z,5.63
2022-11-28T07:04:50.803Z,5.64
2022-11-28T07:07:20.064Z,5.64
2022-11-28T07:09:48.053Z,5.66
2022-11-28T07:12:15.860Z,5.68
2022-11-28T07:14:43.656Z,5.71
2022-11-28T07:17:11.560Z,5.71
2022-11-28T07:19:39.631Z,5.73
2022-11-28T07:22:07.490Z,5.64
2022-11-28T07:24:36.688Z,5.80
2022-11-28T07:27:04.623Z,5.81
2022-11-28T07:29:36.469Z,5.83
2022-11-28T07:32:05.803Z,5.81
2022-11-28T07:34:33.685Z,5.84
2022-11-28T07:37:01.529Z,5.86
2022-11-28T07:39:29.406Z,5.86
2022-11-28T07:41:58.559Z,5.86
2022-11-28T07:44:26.347Z,5.95
2022-11-28T07:46:54.317Z,5.99
2022-11-28T07:49:22.242Z,6.01
2022-11-28T07:51:50.343Z,6.02
2022-11-28T07:54:18.216Z,6.04
2022-11-28T07:59:35.654Z,6.06
2022-11-28T08:02:03.734Z,6.11
2022-11-28T08:04:31.836Z,6.12
2022-11-28T08:06:59.745Z,6.13
2022-11-28T08:09:27.681Z,6.10
2022-11-28T08:11:55.639Z,6.12
2022-11-28T08:14:23.500Z,6.12
2022-11-28T08:16:52.802Z,6.15
2022-11-28T08:19:24.632Z,6.19
2022-11-28T08:21:52.880Z,6.21
2022-11-28T08:24:20.675Z,6.23
2022-11-28T08:26:48.469Z,6.21
2022-11-28T08:29:16.337Z,6.20
2022-11-28T08:31:44.192Z,6.24
2022-11-28T08:34:13.334Z,6.22
2022-11-28T08:36:43.348Z,6.22
2022-11-28T08:39:27.828Z,6.26
2022-11-28T08:41:58.914Z,6.27
2022-11-28T08:44:30.268Z,6.29
2022-11-28T08:46:58.552Z,6.28
2022-11-28T08:49:27.688Z,6.26
2022-11-28T08:51:55.566Z,6.28
2022-11-28T08:54:23.446Z,6.31
2022-11-28T08:56:51.335Z,6.38
2022-11-28T08:59:19.174Z,6.42
2022-11-28T09:01:47.080Z,6.44
2022-11-28T09:04:15.079Z,6.45
2022-11-28T09:06:44.328Z,6.40
2022-11-28T09:09:12.517Z,6.34
2022-11-28T09:11:40.593Z,6.43
2022-11-28T09:14:08.774Z,6.48
2022-11-28T09:16:36.635Z,6.55
2022-11-28T09:19:05.123Z,6.60
2022-11-28T09:21:33.201Z,6.55
2022-11-28T09:24:02.407Z,6.57
2022-11-28T09:26:30.947Z,6.63
2022-11-28T09:28:58.790Z,6.72
2022-11-28T09:31:26.645Z,6.83
2022-11-28T09:33:54.975Z,6.92
2022-11-28T09:36:24.780Z,7.01
2022-11-28T09:38:52.811Z,7.07
2022-11-28T09:41:34.719Z,7.19
2022-11-28T09:44:08.000Z,7.26
2022-11-28T09:46:38.304Z,7.37
2022-11-28T09:49:20.852Z,7.43
2022-11-28T09:51:53.977Z,7.35
2022-11-28T09:54:28.955Z,7.34
2022-11-28T09:56:59.964Z,7.27
2022-11-28T09:59:30.080Z,7.29
2022-11-28T10:02:05.770Z,7.27
2022-11-28T10:04:42.395Z,7.17
2022-11-28T10:07:20.605Z,7.12
2022-11-28T10:09:58.147Z,7.06
2022-11-28T10:12:44.503Z,7.07
2022-11-28T10:15:25.674Z,7.10
2022-11-28T10:18:08.150Z,7.07
2022-11-28T10:20:40.527Z,6.87
2022-11-28T10:23:15.863Z,6.91
2022-11-28T10:25:49.474Z,6.97
2022-11-28T10:28:23.192Z,6.90
2022-11-28T10:30:58.223Z,6.86
2022-11-28T10:33:30.998Z,6.85
2022-11-28T10:36:01.490Z,6.97
2022-11-28T10:38:34.110Z,7.10
2022-11-28T10:41:08.787Z,7.15
2022-11-28T10:43:45.070Z,7.14
2022-11-28T10:46:31.747Z,7.13
2022-11-28T10:49:09.076Z,7.10
2022-11-28T10:51:49.950Z,7.04
2022-11-28T10:54:26.582Z,6.97
2022-11-28T10:57:02.165Z,6.87
2022-11-28T10:59:42.637Z,6.84
2022-11-28T11:02:21.621Z,6.82
2022-11-28T11:04:49.546Z,6.76
2022-11-28T11:07:27.987Z,6.70
2022-11-28T11:09:59.462Z,6.73
2022-11-28T11:12:31.530Z,6.73
2022-11-28T11:15:15.321Z,6.68
2022-11-28T11:17:43.110Z,6.66
2022-11-28T11:20:38.139Z,6.60
2022-11-28T11:23:16.562Z,6.64
2022-11-28T11:25:55.562Z,6.65
2022-11-28T11:28:41.612Z,6.65
2022-11-28T11:31:20.695Z,6.64
2022-11-28T11:33:51.459Z,6.60
2022-11-28T11:36:28.776Z,6.62
2022-11-28T11:39:08.187Z,6.64
2022-11-28T11:41:36.042Z,6.67
2022-11-28T11:44:29.596Z,6.70
2022-11-28T11:47:01.815Z,6.69
2022-11-28T11:49:32.116Z,6.76
2022-11-28T11:52:02.106Z,6.73
2022-11-28T11:54:30.495Z,6.74
2022-11-28T11:57:30.582Z,6.76
2022-11-28T11:59:51.699Z,6.56
2022-11-28T12:02:26.522Z,6.76
2022-11-28T12:05:00.487Z,6.87
2022-11-28T12:07:34.339Z,6.97
2022-11-28T12:10:04.752Z,7.04
2022-11-28T12:12:37.320Z,7.15
2022-11-28T12:15:13.020Z,7.24
2022-11-28T12:17:58.577Z,7.29
2022-11-28T12:20:42.906Z,7.34
2022-11-28T12:23:30.628Z,7.39
2022-11-28T12:26:07.213Z,7.45
2022-11-28T12:28:48.728Z,7.30
2022-11-28T12:31:27.253Z,7.41
2022-11-28T12:34:07.571Z,7.39
2022-11-28T12:36:42.497Z,7.33
2022-11-28T12:39:18.819Z,7.22
2022-11-28T12:42:20.112Z,7.23
2022-11-28T12:44:59.869Z,7.17
2022-11-28T12:47:39.432Z,7.17
2022-11-28T12:50:21.618Z,7.15
2022-11-28T12:53:00.891Z,7.09
2022-11-28T12:55:36.410Z,7.06
2022-11-28T12:58:12.737Z,7.04
2022-11-28T13:00:51.102Z,6.99
2022-11-28T13:03:34.255Z,6.98
2022-11-28T13:06:16.131Z,6.99
2022-11-28T13:09:15.305Z,6.94
2022-11-28T13:11:58.071Z,6.93
2022-11-28T13:14:36.859Z,6.93
2022-11-28T13:17:17.341Z,6.93
2022-11-28T13:19:51.205Z,6.93
2022-11-28T13:22:25.189Z,6.92
2022-11-28T13:25:01.589Z,6.91
2022-11-28T13:27:38.528Z,6.81
2022-11-28T13:30:21.100Z,6.88
2022-11-28T13:32:55.217Z,6.85
2022-11-28T13:35:24.369Z,6.85
2022-11-28T13:40:52.904Z,6.83
2022-11-28T13:43:28.617Z,6.82
2022-11-28T13:45:57.191Z,6.84
2022-11-28T13:49:13.757Z,6.82
2022-11-28T13:51:42.992Z,6.80
2022-11-28T13:54:37.105Z,6.81
2022-11-28T13:57:15.360Z,6.77
2022-11-28T13:59:49.855Z,6.53
2022-11-28T14:02:23.988Z,6.67
2022-11-28T14:04:51.946Z,6.63
2022-11-28T14:07:30.729Z,6.58
2022-11-28T14:10:26.769Z,6.54
2022-11-28T14:13:22.956Z,6.51
2022-11-28T14:16:07.778Z,6.46
2022-11-28T14:18:58.437Z,6.44
2022-11-28T14:21:40.067Z,6.33
2022-11-28T14:24:17.282Z,6.31
2022-11-28T14:26:45.598Z,6.31
2022-11-28T14:29:24.131Z,6.27
2022-11-28T14:32:21.652Z,6.24
2022-11-28T14:34:45.521Z,6.12
2022-11-28T14:37:57.664Z,6.16
2022-11-28T14:41:06.123Z,6.12
2022-11-28T14:43:36.617Z,6.05
2022-11-28T14:46:33.888Z,6.03
2022-11-28T14:49:17.672Z,5.99
2022-11-28T14:54:57.907Z,5.94
2022-11-28T14:57:28.899Z,5.93
2022-11-28T14:59:59.678Z,5.93
2022-11-28T15:02:44.924Z,5.92
2022-11-28T15:05:34.588Z,5.83
2022-11-28T15:08:47.995Z,5.90
2022-11-28T15:11:24.052Z,5.89
2022-11-28T15:14:09.835Z,5.89
2022-11-28T15:16:48.250Z,5.92
2022-11-28T15:19:26.500Z,5.91
2022-11-28T15:21:56.198Z,5.87
2022-11-28T15:24:30.436Z,5.80
2022-11-28T15:27:17.286Z,5.79
2022-11-28T15:29:54.677Z,5.81
2022-11-28T15:32:23.642Z,5.80
2022-11-28T15:35:00.911Z,5.72
2022-11-28T15:37:32.056Z,5.77
2022-11-28T15:40:03.412Z,5.77
2022-11-28T15:42:33.903Z,5.69
2022-11-28T15:45:09.521Z,5.68
2022-11-28T15:47:38.916Z,5.69
2022-11-28T15:50:18.198Z,5.69
2022-11-28T15:52:54.686Z,5.67
2022-11-28T15:55:23.054Z,5.67
2022-11-28T15:57:51.050Z,5.62
2022-11-28T16:00:21.867Z,5.67
2022-11-28T16:02:50.258Z,5.67
2022-11-28T16:05:22.236Z,5.66
2022-11-28T16:07:51.959Z,5.60
2022-11-28T16:10:25.183Z,5.67
2022-11-28T16:13:01.758Z,5.63
2022-11-28T16:15:30.756Z,5.68
2022-11-28T16:17:58.797Z,5.69
2022-11-28T16:20:30.663Z,5.66
2022-11-28T16:23:02.541Z,5.56
2022-11-28T16:25:31.136Z,5.63
2022-11-28T16:27:59.933Z,5.60
2022-11-28T16:30:33.499Z,5.61
2022-11-28T16:33:01.983Z,5.62
2022-11-28T16:35:36.072Z,5.58
2022-11-28T16:38:15.231Z,5.61
2022-11-28T16:40:43.804Z,5.60
2022-11-28T16:43:21.294Z,5.54
2022-11-28T16:45:59.957Z,5.52
2022-11-28T16:48:30.100Z,5.56
2022-11-28T16:51:36.684Z,5.56
2022-11-28T16:54:32.389Z,5.58
2022-11-28T16:57:11.869Z,5.55
2022-11-28T16:59:39.984Z,5.56
2022-11-28T17:02:15.361Z,5.55
2022-11-28T17:04:43.259Z,5.57
2022-11-28T17:07:14.601Z,5.57
2022-11-28T17:09:42.928Z,5.54
2022-11-28T17:12:17.844Z,5.54
2022-11-28T17:14:45.720Z,5.51
2022-11-28T17:17:14.691Z,5.51
2022-11-28T17:19:42.911Z,5.48
2022-11-28T17:22:15.440Z,5.51
2022-11-28T17:24:43.682Z,5.55
2022-11-28T17:27:13.003Z,5.55
2022-11-28T17:29:41.080Z,5.52
2022-11-28T17:32:13.437Z,5.47
2022-11-28T17:34:42.545Z,5.49
2022-11-28T17:37:11.032Z,5.42
2022-11-28T17:40:00.273Z,5.42
2022-11-28T17:42:28.199Z,5.36
2022-11-28T17:44:56.171Z,5.31
2022-11-28T17:47:26.804Z,5.22
2022-11-28T17:49:55.493Z,5.32
2022-11-28T17:52:30.020Z,5.33
2022-11-28T17:55:07.086Z,5.31
2022-11-28T17:57:36.091Z,5.31
2022-11-28T18:00:06.562Z,5.32
2022-11-28T18:02:41.841Z,5.37
2022-11-28T18:05:10.726Z,5.42
2022-11-28T18:07:40.243Z,5.45
2022-11-28T18:10:13.486Z,5.46
2022-11-28T18:12:41.595Z,5.46
2022-11-28T18:15:11.158Z,5.45
2022-11-28T18:17:39.388Z,5.46
2022-11-28T18:20:09.410Z,5.47
2022-11-28T18:22:37.299Z,5.50
2022-11-28T18:25:07.927Z,5.51
2022-11-28T18:27:37.212Z,5.55
2022-11-28T18:30:06.018Z,5.58
2022-11-28T18:32:33.982Z,5.57
2022-11-28T18:35:01.914Z,5.58
2022-11-28T18:37:29.915Z,5.57
2022-11-28T18:39:58.321Z,5.54
2022-11-28T18:42:26.501Z,5.58
2022-11-28T18:44:55.982Z,5.56
2022-11-28T18:47:24.841Z,5.52
2022-11-28T18:49:53.445Z,5.57
2022-11-28T18:52:21.424Z,5.60
2022-11-28T18:54:49.254Z,5.63
2022-11-28T18:57:18.319Z,5.62
2022-11-28T18:59:52.885Z,5.66
2022-11-28T19:02:24.131Z,5.68
2022-11-28T19:04:52.745Z,5.61
2022-11-28T19:07:20.920Z,5.67
2022-11-28T19:09:48.812Z,5.63
2022-11-28T19:12:16.811Z,5.53
2022-11-28T19:14:44.766Z,5.64
2022-11-28T19:17:13.036Z,5.63
2022-11-28T19:19:44.275Z,5.61
2022-11-28T19:22:12.502Z,5.61
2022-11-28T19:24:40.369Z,5.59
2022-11-28T19:27:13.876Z,5.64
2022-11-28T19:29:43.115Z,5.62
2022-11-28T19:32:11.395Z,5.65
2022-11-28T19:34:39.526Z,5.67
2022-11-28T19:37:08.802Z,5.68
2022-11-28T19:39:36.928Z,5.71
2022-11-28T19:42:04.983Z,5.69
2022-11-28T19:44:33.099Z,5.72
2022-11-28T19:47:01.908Z,5.57
2022-11-28T19:49:29.944Z,5.69
2022-11-28T19:51:58.431Z,5.68
2022-11-28T19:54:28.226Z,5.64
2022-11-28T19:56:57.055Z,5.65
2022-11-28T19:59:25.110Z,5.68
2022-11-28T20:01:53.821Z,5.67
2022-11-28T20:04:23.056Z,5.69
2022-11-28T20:06:50.874Z,5.70
2022-11-28T20:09:18.938Z,5.74
2022-11-28T20:11:49.570Z,5.74
2022-11-28T20:14:19.192Z,5.75
2022-11-28T20:16:47.892Z,5.73
2022-11-28T20:19:17.807Z,5.72
2022-11-28T20:21:46.402Z,5.74
2022-11-28T20:24:16.103Z,5.76
2022-11-28T20:26:46.289Z,5.80
2022-11-28T20:29:17.558Z,5.75
2022-11-28T20:31:48.214Z,5.72
2022-11-28T20:34:18.433Z,5.67
2022-11-28T20:36:52.163Z,5.63
2022-11-28T20:39:20.075Z,5.71
2022-11-28T20:41:48.015Z,5.69
2022-11-28T20:44:17.688Z,5.69
2022-11-28T20:46:46.379Z,5.69
2022-11-28T20:49:15.675Z,5.69
2022-11-28T20:51:43.713Z,5.48
2022-11-28T20:54:13.419Z,5.66
2022-11-28T20:57:13.007Z,5.67
2022-11-28T20:59:32.578Z,5.72
2022-11-28T21:02:00.442Z,5.74
2022-11-28T21:04:28.356Z,5.76
2022-11-28T21:06:56.237Z,5.75
2022-11-28T21:09:24.041Z,5.75
2022-11-28T21:11:59.578Z,5.72
2022-11-28T21:14:28.669Z,5.71
2022-11-28T21:16:58.941Z,5.69
2022-11-28T21:19:27.207Z,5.71
2022-11-28T21:21:55.151Z,5.72
2022-11-28T21:24:23.066Z,5.72
2022-11-28T21:26:53.830Z,5.75
2022-11-28T21:29:25.424Z,5.80
2022-11-28T21:31:53.920Z,5.82
2022-11-28T21:34:23.283Z,5.78
2022-11-28T21:36:51.294Z,5.79
2022-11-28T21:39:21.911Z,5.78
2022-11-28T21:41:50.843Z,5.74
2022-11-28T21:44:18.849Z,5.75
2022-11-28T21:46:47.827Z,5.71
2022-11-28T21:49:15.942Z,5.69
2022-11-28T21:51:45.416Z,5.71
2022-11-28T21:54:13.909Z,5.72
2022-11-28T21:56:41.937Z,5.70
2022-11-28T21:59:09.986Z,5.72
2022-11-28T22:01:38.906Z,5.71
2022-11-28T22:04:07.218Z,5.71
2022-11-28T22:06:35.318Z,5.63
2022-11-28T22:09:09.495Z,5.69
2022-11-28T22:11:39.322Z,5.69
2022-11-28T22:14:07.314Z,5.69
2022-11-28T22:16:35.209Z,5.71
2022-11-28T22:19:04.160Z,5.74
2022-11-28T22:24:22.742Z,5.59
2022-11-28T22:26:51.076Z,5.57
2022-11-28T22:29:19.377Z,5.69
2022-11-28T22:31:47.758Z,5.64
2022-11-28T22:34:15.686Z,5.57
2022-11-28T22:36:44.128Z,5.53
2022-11-28T22:39:12.350Z,5.53
2022-11-28T22:41:41.703Z,5.47
2022-11-28T22:44:11.303Z,5.45
2022-11-28T22:46:39.564Z,5.46
2022-11-28T22:49:11.160Z,5.49
2022-11-28T22:51:40.317Z,5.33
2022-11-28T22:54:09.120Z,5.54
2022-11-28T22:56:37.398Z,5.57
2022-11-28T22:59:10.541Z,5.56
2022-11-28T23:01:38.755Z,5.60
2022-11-28T23:04:06.931Z,5.63
2022-11-28T23:06:36.428Z,5.62
2022-11-28T23:09:08.473Z,5.64
2022-11-28T23:11:38.752Z,5.61
2022-11-28T23:14:08.486Z,5.57
2022-11-28T23:16:38.908Z,5.59
2022-11-28T23:19:10.597Z,5.59
2022-11-28T23:21:40.752Z,5.57
2022-11-28T23:24:13.040Z,5.60
2022-11-28T23:26:40.954Z,5.46
2022-11-28T23:29:10.641Z,5.60
2022-11-28T23:31:40.644Z,5.64
2022-11-28T23:34:09.656Z,5.63
2022-11-28T23:36:42.712Z,5.63
2022-11-28T23:39:14.269Z,5.66
2022-11-28T23:41:42.609Z,5.62
2022-11-28T23:44:13.100Z,5.58
2022-11-28T23:46:42.113Z,5.62
2022-11-28T23:49:10.724Z,5.58
2022-11-28T23:51:39.993Z,5.60
2022-11-28T23:54:08.429Z,5.61
2022-11-28T23:56:37.879Z,5.58
2022-11-28T23:59:08.559Z,5.60
